SHT19G EGPD-EGLL
Flight info
| Callsign | SHT19G |
|---|---|
| Flight time | N/A |
| Altitude | 34000 |
| Route | EPCAN DCT NEXUS DCT RIBEL DCT NUGRA |
| Aircraft | A21N/M-SDE2E3FGHIRWXY/LB1 |
Departure
| Time | 2026-05-07 18:48 |
|---|---|
| Airport | Aberdeen International Airport (EGPD) |
Arrival
| Time | N/A |
|---|---|
| Airport | London Heathrow Airport (EGLL) |
| Time | Latitude | Longitude | Altitude | Speed | Heading |
|---|---|---|---|---|---|
| 2026-05-07 18:27 | 57.20197 | -2.20346 | 253 ft | 0 kts | 248° |
| 2026-05-07 18:40 | 57.20200 | -2.20329 | 252 ft | 4 kts | 248° |
| 2026-05-07 18:40 | 57.20207 | -2.20283 | 252 ft | 4 kts | 268° |
| 2026-05-07 18:40 | 57.20206 | -2.20252 | 252 ft | 4 kts | 290° |
| 2026-05-07 18:41 | 57.20192 | -2.20217 | 252 ft | 3 kts | 335° |
| 2026-05-07 18:41 | 57.20184 | -2.20211 | 252 ft | 0 kts | 338° |
| 2026-05-07 18:44 | 57.20205 | -2.20227 | 252 ft | 7 kts | 338° |
| 2026-05-07 18:44 | 57.20258 | -2.20266 | 252 ft | 9 kts | 338° |
| 2026-05-07 18:44 | 57.20326 | -2.20315 | 252 ft | 13 kts | 338° |
| 2026-05-07 18:44 | 57.20415 | -2.20383 | 252 ft | 15 kts | 339° |
| 2026-05-07 18:45 | 57.20518 | -2.20349 | 252 ft | 17 kts | 347° |
| 2026-05-07 18:45 | 57.20629 | -2.20429 | 252 ft | 18 kts | 339° |
| 2026-05-07 18:45 | 57.20751 | -2.20515 | 252 ft | 19 kts | 339° |
| 2026-05-07 18:45 | 57.20881 | -2.20609 | 252 ft | 21 kts | 338° |
| 2026-05-07 18:46 | 57.20983 | -2.20666 | 252 ft | 13 kts | 18° |
| 2026-05-07 18:46 | 57.21006 | -2.20606 | 252 ft | 0 kts | 64° |
| 2026-05-07 18:47 | 57.21036 | -2.20470 | 253 ft | 12 kts | 72° |
| 2026-05-07 18:47 | 57.20979 | -2.20356 | 253 ft | 14 kts | 156° |
| 2026-05-07 18:47 | 57.20692 | -2.20144 | 252 ft | 82 kts | 158° |
| 2026-05-07 18:47 | 57.19980 | -2.19621 | 379 ft | 124 kts | 159° |
| 2026-05-07 18:48 | 57.19196 | -2.19034 | 996 ft | 122 kts | 160° |
| 2026-05-07 18:48 | 57.18391 | -2.18485 | 1442 ft | 132 kts | 165° |
| 2026-05-07 18:48 | 57.17408 | -2.17894 | 1678 ft | 161 kts | 165° |
| 2026-05-07 18:48 | 57.16210 | -2.17455 | 1848 ft | 193 kts | 188° |
| 2026-05-07 18:49 | 57.14765 | -2.17774 | 2238 ft | 224 kts | 182° |
| 2026-05-07 18:49 | 57.13155 | -2.17557 | 2946 ft | 238 kts | 175° |
| 2026-05-07 18:49 | 57.11501 | -2.17149 | 3911 ft | 242 kts | 175° |
| 2026-05-07 18:49 | 57.09827 | -2.16692 | 4876 ft | 245 kts | 175° |
| 2026-05-07 18:50 | 57.08126 | -2.16212 | 5780 ft | 249 kts | 174° |
| 2026-05-07 18:50 | 57.06404 | -2.15718 | 6664 ft | 253 kts | 174° |
| 2026-05-07 18:50 | 57.04655 | -2.15214 | 7523 ft | 257 kts | 174° |
| 2026-05-07 18:50 | 57.02874 | -2.14697 | 8405 ft | 261 kts | 174° |
| 2026-05-07 18:51 | 57.01069 | -2.14169 | 9317 ft | 265 kts | 174° |
| 2026-05-07 18:51 | 56.99236 | -2.13633 | 10149 ft | 271 kts | 174° |
| 2026-05-07 18:51 | 56.97302 | -2.13070 | 10536 ft | 293 kts | 174° |
| 2026-05-07 18:51 | 56.95212 | -2.12459 | 10846 ft | 315 kts | 174° |
| 2026-05-07 18:52 | 56.92984 | -2.11801 | 11310 ft | 330 kts | 173° |
| 2026-05-07 18:52 | 56.90700 | -2.10964 | 12030 ft | 337 kts | 171° |
| 2026-05-07 18:52 | 56.88389 | -2.10061 | 12802 ft | 342 kts | 171° |
| 2026-05-07 18:52 | 56.86050 | -2.09150 | 13574 ft | 347 kts | 171° |
| 2026-05-07 18:53 | 56.83671 | -2.08228 | 14283 ft | 350 kts | 171° |
| 2026-05-07 18:53 | 56.81282 | -2.07305 | 14996 ft | 353 kts | 171° |
| 2026-05-07 18:53 | 56.78874 | -2.06379 | 15726 ft | 355 kts | 171° |
| 2026-05-07 18:53 | 56.76449 | -2.05445 | 16437 ft | 357 kts | 171° |
| 2026-05-07 18:54 | 56.74005 | -2.04506 | 17126 ft | 360 kts | 171° |
| 2026-05-07 18:54 | 56.71583 | -2.03576 | 17785 ft | 362 kts | 171° |
| 2026-05-07 18:54 | 56.69072 | -2.02613 | 18420 ft | 365 kts | 171° |
| 2026-05-07 18:54 | 56.66610 | -2.01669 | 18960 ft | 368 kts | 171° |
| 2026-05-07 18:55 | 56.64062 | -2.00695 | 19509 ft | 371 kts | 171° |
| 2026-05-07 18:55 | 56.61564 | -1.99737 | 20039 ft | 374 kts | 171° |
| 2026-05-07 18:55 | 56.59004 | -1.98759 | 20569 ft | 377 kts | 171° |
| 2026-05-07 18:55 | 56.56430 | -1.97779 | 21086 ft | 380 kts | 171° |
| 2026-05-07 18:56 | 56.53833 | -1.96791 | 21580 ft | 383 kts | 171° |
| 2026-05-07 18:56 | 56.51200 | -1.95796 | 22086 ft | 387 kts | 171° |
| 2026-05-07 18:56 | 56.48561 | -1.94799 | 22609 ft | 390 kts | 171° |
| 2026-05-07 18:56 | 56.45896 | -1.93789 | 23109 ft | 393 kts | 171° |
| 2026-05-07 18:57 | 56.43206 | -1.92772 | 23608 ft | 396 kts | 171° |
| 2026-05-07 18:57 | 56.40497 | -1.91747 | 24052 ft | 399 kts | 171° |
| 2026-05-07 18:57 | 56.37777 | -1.90717 | 24512 ft | 401 kts | 171° |
| 2026-05-07 18:57 | 56.35036 | -1.89683 | 24966 ft | 403 kts | 171° |
| 2026-05-07 18:58 | 56.32288 | -1.88651 | 25414 ft | 405 kts | 171° |
| 2026-05-07 18:58 | 56.29517 | -1.87609 | 25854 ft | 407 kts | 171° |
| 2026-05-07 18:58 | 56.26737 | -1.86567 | 26247 ft | 410 kts | 170° |
| 2026-05-07 18:58 | 56.23940 | -1.85525 | 26663 ft | 412 kts | 171° |
| 2026-05-07 18:59 | 56.21104 | -1.84835 | 27059 ft | 412 kts | 179° |
| 2026-05-07 18:59 | 56.18238 | -1.85027 | 27465 ft | 412 kts | 187° |
| 2026-05-07 18:59 | 56.15385 | -1.85633 | 27863 ft | 414 kts | 188° |
| 2026-05-07 18:59 | 56.12522 | -1.86297 | 28247 ft | 416 kts | 188° |
| 2026-05-07 19:00 | 56.09636 | -1.86945 | 28625 ft | 418 kts | 187° |